Warm Lake, Idaho
Current Conditions -  °F | °C
As of 5:51 PM on Tuesday 27 Jan 2015 (Local Time) from KMYL Reporting Station
Overcast Overcast  
Wind Chill: 36°   Ceiling: 11000
Heat Index: 36°   Visibility: 10mi
Dew Point: 29°   Wind: 0mph
Humidity: 76%   Direction: NA
Pressure: 30.06"   Gusts: NA
Location:  44.4236°N, 115.8°W
Report Text: KMYL 280051Z AUTO 00000KT 10SM OVC110 02/M02 A3006 RMK AO2 SLP211 T00221017
Loading
Personal Weather Stations






























Interactive Weather Map New forecast layout! Learn more

10-Day Weather Forecast

Advertisements
Track Severe Weather on mobile